createdAt,value
2023-01-02T07:52:20.745Z,19.73
2023-01-02T07:57:22.827Z,19.52
2023-01-02T08:02:25.023Z,20.10
2023-01-02T08:07:27.267Z,18.57
2023-01-02T08:12:29.339Z,18.53
2023-01-02T08:17:32.461Z,17.90
2023-01-02T08:22:34.505Z,17.55
2023-01-02T08:27:36.611Z,19.30
2023-01-02T08:32:39.465Z,20.40
2023-01-02T08:37:45.452Z,19.12
2023-01-02T08:42:50.770Z,18.10
2023-01-02T08:47:53.043Z,19.45
2023-01-02T08:52:55.101Z,21.70
2023-01-02T08:57:57.134Z,20.20
2023-01-02T09:02:59.326Z,20.93
2023-01-02T09:08:02.424Z,19.35
2023-01-02T09:13:04.508Z,19.98
2023-01-02T09:18:06.552Z,18.10
2023-01-02T09:23:08.630Z,19.13
2023-01-02T09:28:10.808Z,19.60
2023-01-02T09:33:12.863Z,20.00
2023-01-02T09:38:15.320Z,19.17
2023-01-02T09:43:24.854Z,19.12
2023-01-02T09:48:33.243Z,19.00
2023-01-02T09:53:35.625Z,20.33
2023-01-02T09:58:53.257Z,19.25
2023-01-02T10:04:16.451Z,19.17
2023-01-02T10:09:34.390Z,18.40
2023-01-02T10:14:56.581Z,18.37
2023-01-02T10:20:27.786Z,18.62
2023-01-02T10:25:34.461Z,19.97
2023-01-02T10:30:42.361Z,19.30
2023-01-02T10:35:50.782Z,18.42
2023-01-02T10:40:52.939Z,18.50
2023-01-02T10:45:55.518Z,18.27
2023-01-02T10:51:02.612Z,17.80
2023-01-02T10:56:19.345Z,16.58
2023-01-02T11:01:22.750Z,17.23
2023-01-02T11:06:39.393Z,17.30
2023-01-02T11:11:53.577Z,18.15
2023-01-02T11:17:04.155Z,17.33
2023-01-02T11:22:07.218Z,18.45
2023-01-02T11:27:09.568Z,19.30
2023-01-02T11:32:22.813Z,18.43
2023-01-02T11:37:26.112Z,18.80
2023-01-02T11:43:02.469Z,19.12
2023-01-02T11:48:15.318Z,19.62
2023-01-02T11:53:20.472Z,17.43
2023-01-02T11:58:34.562Z,18.77
2023-01-02T12:03:36.734Z,18.15
2023-01-02T12:08:47.580Z,18.73
2023-01-02T12:14:10.297Z,19.08
2023-01-02T12:19:24.421Z,19.65
2023-01-02T12:24:29.393Z,18.67
2023-01-02T12:29:50.511Z,19.30
2023-01-02T12:34:55.338Z,19.02
2023-01-02T12:40:25.699Z,19.27
2023-01-02T12:45:44.474Z,20.40
2023-01-02T12:50:55.332Z,20.92
2023-01-02T12:56:28.521Z,19.42
2023-01-02T13:01:33.577Z,20.20
2023-01-02T13:06:57.532Z,19.20
2023-01-02T13:12:17.004Z,19.15
2023-01-02T13:17:49.560Z,20.10
2023-01-02T13:23:08.279Z,21.13
2023-01-02T13:28:13.170Z,19.65
2023-01-02T13:33:28.325Z,20.37
2023-01-02T13:38:34.824Z,20.30
2023-01-02T13:43:39.900Z,21.40
2023-01-02T13:48:47.083Z,23.02
2023-01-02T13:53:53.417Z,23.63
2023-01-02T13:59:41.693Z,23.12
2023-01-02T14:04:44.455Z,22.60
2023-01-02T14:10:10.711Z,21.90
2023-01-02T14:15:23.024Z,22.67
2023-01-02T14:20:28.580Z,23.10
2023-01-02T14:25:44.018Z,23.65
2023-01-02T14:30:47.012Z,22.33
2023-01-02T14:35:57.720Z,22.15
2023-01-02T14:41:19.765Z,21.00
2023-01-02T14:46:25.492Z,20.70
2023-01-02T14:51:32.888Z,20.80
2023-01-02T14:56:37.830Z,22.17
2023-01-02T15:01:49.534Z,22.73
2023-01-02T15:07:18.571Z,29.17
2023-01-02T15:12:52.515Z,23.08
2023-01-02T15:18:01.849Z,22.75
2023-01-02T15:23:04.548Z,22.47
2023-01-02T15:28:21.981Z,22.80
2023-01-02T15:33:31.826Z,22.17
2023-01-02T15:38:33.919Z,24.03
2023-01-02T15:43:57.916Z,22.13
2023-01-02T15:49:02.274Z,23.15
2023-01-02T15:54:04.873Z,21.73
2023-01-02T15:59:26.473Z,23.60
2023-01-02T16:04:31.379Z,21.87
2023-01-02T16:09:33.465Z,22.20
2023-01-02T16:14:42.274Z,20.17
2023-01-02T16:19:59.991Z,21.33
2023-01-02T16:25:17.957Z,22.30
2023-01-02T16:30:25.975Z,22.97
2023-01-02T16:35:32.566Z,21.30
2023-01-02T16:41:00.554Z,21.65
2023-01-02T16:46:11.347Z,19.27
2023-01-02T16:51:14.795Z,19.17
2023-01-02T16:56:16.969Z,19.75
2023-01-02T17:01:22.314Z,20.55
2023-01-02T17:06:24.478Z,20.33
2023-01-02T17:11:26.677Z,21.15
2023-01-02T17:16:28.970Z,23.48
2023-01-02T17:21:33.075Z,21.53
2023-01-02T17:26:35.468Z,21.40
2023-01-02T17:31:37.952Z,22.02
2023-01-02T17:36:40.106Z,22.73
2023-01-02T17:41:42.242Z,23.70
2023-01-02T17:52:07.775Z,22.70
2023-01-02T17:57:11.142Z,23.30
2023-01-02T18:02:17.616Z,22.17
2023-01-02T18:07:19.789Z,22.92
2023-01-02T18:12:22.009Z,21.97
2023-01-02T18:17:30.219Z,22.58
2023-01-02T18:22:32.677Z,22.00
2023-01-02T18:27:35.508Z,22.23
2023-01-02T18:32:40.513Z,22.23
2023-01-02T18:37:43.670Z,22.83
2023-01-02T18:42:48.009Z,22.17
2023-01-02T18:47:56.874Z,22.43
2023-01-02T18:52:59.784Z,23.17
2023-01-02T18:58:09.374Z,24.08
2023-01-02T19:03:25.858Z,24.13
2023-01-02T19:08:37.247Z,23.52
2023-01-02T19:13:39.341Z,23.38
2023-01-02T19:18:46.832Z,24.73
2023-01-02T19:23:59.875Z,23.73
2023-01-02T19:29:13.862Z,24.23
2023-01-02T19:34:24.025Z,24.52
2023-01-02T19:39:31.520Z,23.40
2023-01-02T19:44:33.660Z,25.02
2023-01-02T19:49:35.744Z,25.40
2023-01-02T19:54:39.136Z,27.17
2023-01-02T19:59:45.399Z,24.85
2023-01-02T20:04:49.774Z,25.42
2023-01-02T20:09:53.278Z,25.00
2023-01-02T20:14:59.173Z,25.50
2023-01-02T20:20:02.274Z,25.17
2023-01-02T20:25:05.176Z,25.05
2023-01-02T20:30:08.789Z,26.17
2023-01-02T20:35:11.047Z,26.42
2023-01-02T20:40:13.149Z,26.60
2023-01-02T20:45:15.304Z,26.57
2023-01-02T20:50:17.714Z,25.40
2023-01-02T20:55:19.983Z,26.40
2023-01-02T21:00:22.290Z,28.77
